Aeroporto :
LOGIN :

Iscrizione | Disclaimer

   EN    FR    IT 

 










Sommario :    VFR   VFR Marginale   IFR   IFR Intensivo   IFR Molto Intensivo
Visibilità : 
Base nubi : 
>= 8 km
>= 3000ft
5 / 8 km
1000 / 3000 ft
1500m / 5 km
500 / 1000 ft
800 / 1500m
200 / 500 ft
< 800m
< 200 ft
Simboli :   Temporali  Nebbia  Neve Forte  Precipitazioni Forti  Vento > 20 kt
SIGMETs :   Varie  Temporali  Ghiacco  Turbolenza  Onda orograficha  Ceneri Vulcaniche






- Altitudine del aeroporto : 183 ft
- Codice IATA : HAJ


EDDV - Hanover/Langenhagen Int.

ULTIMO METAR :
  • 221050Z 27008KT 1700 -DZ BR OVC003 04/03 Q1034 NOSIG

METARs OBSOLETI :
  • 221020Z 27009KT 240V300 2400 BR BKN003 03/03 Q1034 TEMPO 3000
  • 220950Z 27010KT 1700 BR BKN003 03/03 Q1034 NOSIG
  • 220920Z 27011KT 240V300 1100 R27R/1900N R27L/1900N -DZ BR OVC003 03/03 Q1034 TEMPO 2000
  • 220850Z 27010KT 240V300 1100 R27R/1900N R27L/1900N -DZ BR BKN003 03/03 Q1034 TEMPO 2000
  • 220820Z 27010KT 1600 -DZ BR BKN003 03/02 Q1034 TEMPO 3000

TAF AMD TAF EDDV
Valido dal 22 a 07 ore il 23 a 06 ore UTC


220719Z 2207/2306 27009KT 4500 BR BKN008
TEMPO 2207/2212 1200 -DZ BKN003
BECMG 2212/2214 9000 BKN011
PROB30
TEMPO 2214/2218 SCT012
TEMPO 2214/2224 4000 BR BKN008



MetMap, La meteo Aeronautica in un colpo d'occhio ! - Copyright ORBIFLY Dicembre 2007 - Disclaimer

ORBIFLY MET'MAP TEAM :

Programmazione e sviluppo : Alexandra Zaïnal
Concezione : Baudouin d'Aumeries
Aiuto per la programmazione : Marc-Olivier Méhu
Supporto tecnico e logistico : Manuel Goepfert
Aiuto per la traduzione : Arnaldo La Scala

Contatto : metmap@orbifly.com




FONTI E CREDITI :

   NOAA